KGGG/GGG METAR and TAF weather

Enter ICAO airport designator
Station Type Date Time Source
KGGG METAR 2019/06/17 13:53 UTC NOAA

KGGG 171353Z 00000KT 10SM BKN110 23/21 A2993 RMK AO2 SLP128 T02330211


Station Type Date Time Source
KGGG Decoded METAR 2019/06/17 13:53 UTC NOAA

LONGVIEW GREGG COUNTY AIRPORT , TX, United States (KGGG) 32-23N 094-43W 107M
Jun 17, 2019 - 09:53 AM EDT / 2019.06.17 1353 UTC
Wind: Calm:0
Visibility: 10 mile(s):0
Sky conditions: mostly cloudy
Temperature: 73.9 F (23.3 C)
Dew Point: 70.0 F (21.1 C)
Relative Humidity: 87%
Pressure (altimeter): 29.93 in. Hg (1013 hPa)
ob: KGGG 171353Z 00000KT 10SM BKN110 23/21 A2993 RMK AO2 SLP128 T02330211
cycle: 14

Station Type Date Time Source
KGGG TAF 2019/06/17 12:42 UTC NOAA

TAF KGGG 171141Z 1712/1812 VRB03KT P6SM BKN110
FM171600 22006KT P6SM SCT020 BKN040
FM171900 24011G19KT P6SM SCT030 SCT050
FM180000 19005KT P6SM FEW050

Example: see airport list